sensor_id;sensor_type;location;lat;lon;timestamp;temperature;humidity
7958;DHT22;4024;52.172;5.378;2024-01-30T00:01:17;9.80;99.90
7958;DHT22;4024;52.172;5.378;2024-01-30T00:03:42;9.80;99.90
7958;DHT22;4024;52.172;5.378;2024-01-30T00:06:08;9.80;99.90
7958;DHT22;4024;52.172;5.378;2024-01-30T00:08:34;9.90;99.90
7958;DHT22;4024;52.172;5.378;2024-01-30T00:11:00;9.80;99.90
7958;DHT22;4024;52.172;5.378;2024-01-30T00:13:26;9.80;99.90
7958;DHT22;4024;52.172;5.378;2024-01-30T00:15:51;9.80;99.90
7958;DHT22;4024;52.172;5.378;2024-01-30T00:18:17;9.80;99.90
7958;DHT22;4024;52.172;5.378;2024-01-30T00:20:44;9.80;99.90
7958;DHT22;4024;52.172;5.378;2024-01-30T00:23:09;9.80;99.90
7958;DHT22;4024;52.172;5.378;2024-01-30T00:25:35;9.80;99.90
7958;DHT22;4024;52.172;5.378;2024-01-30T00:28:00;9.80;99.90
7958;DHT22;4024;52.172;5.378;2024-01-30T00:30:26;9.80;99.90
7958;DHT22;4024;52.172;5.378;2024-01-30T00:32:53;9.80;99.90
7958;DHT22;4024;52.172;5.378;2024-01-30T00:35:18;9.80;99.90
7958;DHT22;4024;52.172;5.378;2024-01-30T00:37:44;9.80;99.90
7958;DHT22;4024;52.172;5.378;2024-01-30T00:40:10;9.90;99.90
7958;DHT22;4024;52.172;5.378;2024-01-30T00:42:41;9.70;99.90
7958;DHT22;4024;52.172;5.378;2024-01-30T00:45:12;9.70;99.90
7958;DHT22;4024;52.172;5.378;2024-01-30T00:47:37;9.70;99.90
7958;DHT22;4024;52.172;5.378;2024-01-30T00:50:03;9.80;99.90
7958;DHT22;4024;52.172;5.378;2024-01-30T00:52:29;9.70;99.90
7958;DHT22;4024;52.172;5.378;2024-01-30T00:54:55;9.70;99.90
7958;DHT22;4024;52.172;5.378;2024-01-30T00:57:20;9.70;99.90
7958;DHT22;4024;52.172;5.378;2024-01-30T00:59:46;9.70;99.90
7958;DHT22;4024;52.172;5.378;2024-01-30T01:02:11;9.70;99.90
7958;DHT22;4024;52.172;5.378;2024-01-30T01:04:37;9.60;99.90
7958;DHT22;4024;52.172;5.378;2024-01-30T01:07:03;9.70;99.90
7958;DHT22;4024;52.172;5.378;2024-01-30T01:09:28;9.60;99.90
7958;DHT22;4024;52.172;5.378;2024-01-30T01:11:54;9.60;99.90
7958;DHT22;4024;52.172;5.378;2024-01-30T01:14:19;9.60;99.90
7958;DHT22;4024;52.172;5.378;2024-01-30T01:16:45;9.60;99.90
7958;DHT22;4024;52.172;5.378;2024-01-30T01:19:11;9.60;99.90
7958;DHT22;4024;52.172;5.378;2024-01-30T01:21:36;9.50;99.90
7958;DHT22;4024;52.172;5.378;2024-01-30T01:24:03;9.50;99.90
7958;DHT22;4024;52.172;5.378;2024-01-30T01:26:29;9.50;99.90
7958;DHT22;4024;52.172;5.378;2024-01-30T01:28:54;9.50;99.90
7958;DHT22;4024;52.172;5.378;2024-01-30T01:31:20;9.50;99.90
7958;DHT22;4024;52.172;5.378;2024-01-30T01:33:50;9.40;99.90
7958;DHT22;4024;52.172;5.378;2024-01-30T01:36:15;9.40;99.90
7958;DHT22;4024;52.172;5.378;2024-01-30T01:38:41;9.40;99.90
7958;DHT22;4024;52.172;5.378;2024-01-30T01:41:06;9.40;99.90
7958;DHT22;4024;52.172;5.378;2024-01-30T01:43:32;9.40;99.90
7958;DHT22;4024;52.172;5.378;2024-01-30T01:45:58;9.40;99.90
7958;DHT22;4024;52.172;5.378;2024-01-30T01:48:23;9.30;99.90
7958;DHT22;4024;52.172;5.378;2024-01-30T01:50:49;9.40;99.90
7958;DHT22;4024;52.172;5.378;2024-01-30T01:53:15;9.40;99.90
7958;DHT22;4024;52.172;5.378;2024-01-30T01:55:41;9.30;99.90
7958;DHT22;4024;52.172;5.378;2024-01-30T01:58:07;9.40;99.90
7958;DHT22;4024;52.172;5.378;2024-01-30T02:00:35;9.30;99.90
7958;DHT22;4024;52.172;5.378;2024-01-30T02:03:02;9.30;99.90
7958;DHT22;4024;52.172;5.378;2024-01-30T02:05:29;9.30;99.90
7958;DHT22;4024;52.172;5.378;2024-01-30T02:07:56;9.30;99.90
7958;DHT22;4024;52.172;5.378;2024-01-30T02:10:21;9.30;99.90
7958;DHT22;4024;52.172;5.378;2024-01-30T02:12:48;9.20;99.90
7958;DHT22;4024;52.172;5.378;2024-01-30T02:15:14;9.30;99.90
7958;DHT22;4024;52.172;5.378;2024-01-30T02:17:39;9.20;99.90
7958;DHT22;4024;52.172;5.378;2024-01-30T02:20:05;9.20;99.90
7958;DHT22;4024;52.172;5.378;2024-01-30T02:22:33;9.20;99.90
7958;DHT22;4024;52.172;5.378;2024-01-30T02:24:59;9.20;99.90
7958;DHT22;4024;52.172;5.378;2024-01-30T02:27:25;9.20;99.90
7958;DHT22;4024;52.172;5.378;2024-01-30T02:29:50;9.20;99.90
7958;DHT22;4024;52.172;5.378;2024-01-30T02:32:16;9.10;99.90
7958;DHT22;4024;52.172;5.378;2024-01-30T02:34:42;9.20;99.90
7958;DHT22;4024;52.172;5.378;2024-01-30T02:37:08;9.20;99.90
7958;DHT22;4024;52.172;5.378;2024-01-30T02:39:33;9.10;99.90
7958;DHT22;4024;52.172;5.378;2024-01-30T02:41:59;9.20;99.90
7958;DHT22;4024;52.172;5.378;2024-01-30T02:44:24;9.10;99.90
7958;DHT22;4024;52.172;5.378;2024-01-30T02:46:50;9.20;99.90
7958;DHT22;4024;52.172;5.378;2024-01-30T02:49:15;9.20;99.90
7958;DHT22;4024;52.172;5.378;2024-01-30T02:51:41;9.10;99.90
7958;DHT22;4024;52.172;5.378;2024-01-30T02:54:07;9.20;99.90
7958;DHT22;4024;52.172;5.378;2024-01-30T02:56:32;9.20;99.90
7958;DHT22;4024;52.172;5.378;2024-01-30T02:58:58;9.20;99.90
7958;DHT22;4024;52.172;5.378;2024-01-30T03:01:24;9.20;99.90
7958;DHT22;4024;52.172;5.378;2024-01-30T03:03:50;9.20;99.90
7958;DHT22;4024;52.172;5.378;2024-01-30T03:06:15;9.20;99.90
7958;DHT22;4024;52.172;5.378;2024-01-30T03:08:43;9.20;99.90
7958;DHT22;4024;52.172;5.378;2024-01-30T03:11:08;9.20;99.90
7958;DHT22;4024;52.172;5.378;2024-01-30T03:13:34;9.20;99.90
7958;DHT22;4024;52.172;5.378;2024-01-30T03:15:59;9.20;99.90
7958;DHT22;4024;52.172;5.378;2024-01-30T03:18:25;9.30;99.90
7958;DHT22;4024;52.172;5.378;2024-01-30T03:20:50;9.20;99.90
7958;DHT22;4024;52.172;5.378;2024-01-30T03:23:16;9.30;99.90
7958;DHT22;4024;52.172;5.378;2024-01-30T03:25:41;9.20;99.90
7958;DHT22;4024;52.172;5.378;2024-01-30T03:28:07;9.30;99.90
7958;DHT22;4024;52.172;5.378;2024-01-30T03:30:34;9.20;99.90
7958;DHT22;4024;52.172;5.378;2024-01-30T03:32:59;9.30;99.90
7958;DHT22;4024;52.172;5.378;2024-01-30T03:35:25;9.30;99.90
7958;DHT22;4024;52.172;5.378;2024-01-30T03:37:51;9.30;99.90
7958;DHT22;4024;52.172;5.378;2024-01-30T03:40:16;9.30;99.90
7958;DHT22;4024;52.172;5.378;2024-01-30T03:42:42;9.30;99.90
7958;DHT22;4024;52.172;5.378;2024-01-30T03:45:08;9.30;99.90
7958;DHT22;4024;52.172;5.378;2024-01-30T03:47:33;9.30;99.90
7958;DHT22;4024;52.172;5.378;2024-01-30T03:49:59;9.30;99.90
7958;DHT22;4024;52.172;5.378;2024-01-30T03:52:25;9.30;99.90
7958;DHT22;4024;52.172;5.378;2024-01-30T03:54:50;9.40;99.90
7958;DHT22;4024;52.172;5.378;2024-01-30T03:57:16;9.40;99.90
7958;DHT22;4024;52.172;5.378;2024-01-30T03:59:42;9.40;99.90
7958;DHT22;4024;52.172;5.378;2024-01-30T04:02:09;9.40;99.90
7958;DHT22;4024;52.172;5.378;2024-01-30T04:04:35;9.40;99.90
7958;DHT22;4024;52.172;5.378;2024-01-30T04:07:00;9.40;99.90
7958;DHT22;4024;52.172;5.378;2024-01-30T04:09:26;9.50;99.90
7958;DHT22;4024;52.172;5.378;2024-01-30T04:11:53;9.50;99.90
7958;DHT22;4024;52.172;5.378;2024-01-30T04:14:19;9.50;99.90
7958;DHT22;4024;52.172;5.378;2024-01-30T04:16:45;9.50;99.90
7958;DHT22;4024;52.172;5.378;2024-01-30T04:19:10;9.50;99.90
7958;DHT22;4024;52.172;5.378;2024-01-30T04:21:36;9.50;99.90
7958;DHT22;4024;52.172;5.378;2024-01-30T04:24:01;9.60;99.90
7958;DHT22;4024;52.172;5.378;2024-01-30T04:26:27;9.50;99.90
7958;DHT22;4024;52.172;5.378;2024-01-30T04:28:53;9.60;99.90
7958;DHT22;4024;52.172;5.378;2024-01-30T04:31:18;9.60;99.90
7958;DHT22;4024;52.172;5.378;2024-01-30T04:33:44;9.70;99.90
7958;DHT22;4024;52.172;5.378;2024-01-30T04:36:09;9.60;99.90
7958;DHT22;4024;52.172;5.378;2024-01-30T04:38:38;9.60;99.90
7958;DHT22;4024;52.172;5.378;2024-01-30T04:41:04;9.70;99.90
7958;DHT22;4024;52.172;5.378;2024-01-30T04:43:30;9.70;99.90
7958;DHT22;4024;52.172;5.378;2024-01-30T04:45:56;9.70;99.90
7958;DHT22;4024;52.172;5.378;2024-01-30T04:48:21;9.70;99.90
7958;DHT22;4024;52.172;5.378;2024-01-30T04:50:47;9.80;99.90
7958;DHT22;4024;52.172;5.378;2024-01-30T04:53:13;9.70;99.90
7958;DHT22;4024;52.172;5.378;2024-01-30T04:55:38;9.70;99.90
7958;DHT22;4024;52.172;5.378;2024-01-30T04:58:04;9.70;99.90
7958;DHT22;4024;52.172;5.378;2024-01-30T05:00:29;9.80;99.90
7958;DHT22;4024;52.172;5.378;2024-01-30T05:02:55;9.80;99.90
7958;DHT22;4024;52.172;5.378;2024-01-30T05:05:21;9.80;99.90
7958;DHT22;4024;52.172;5.378;2024-01-30T05:07:47;9.80;99.90
7958;DHT22;4024;52.172;5.378;2024-01-30T05:10:13;9.80;99.90
7958;DHT22;4024;52.172;5.378;2024-01-30T05:12:39;9.80;99.90
7958;DHT22;4024;52.172;5.378;2024-01-30T05:15:05;9.90;99.90
7958;DHT22;4024;52.172;5.378;2024-01-30T05:17:30;9.90;99.90
7958;DHT22;4024;52.172;5.378;2024-01-30T05:19:56;9.90;99.90
7958;DHT22;4024;52.172;5.378;2024-01-30T05:22:22;9.90;99.90
7958;DHT22;4024;52.172;5.378;2024-01-30T05:24:47;10.00;99.90
7958;DHT22;4024;52.172;5.378;2024-01-30T05:27:13;10.00;99.90
7958;DHT22;4024;52.172;5.378;2024-01-30T05:29:41;10.00;99.90
7958;DHT22;4024;52.172;5.378;2024-01-30T05:32:07;10.00;99.90
7958;DHT22;4024;52.172;5.378;2024-01-30T05:34:32;10.00;99.90
7958;DHT22;4024;52.172;5.378;2024-01-30T05:36:58;10.10;99.90
7958;DHT22;4024;52.172;5.378;2024-01-30T05:39:24;10.10;99.90
7958;DHT22;4024;52.172;5.378;2024-01-30T05:41:49;10.10;99.90
7958;DHT22;4024;52.172;5.378;2024-01-30T05:44:15;10.20;99.90
7958;DHT22;4024;52.172;5.378;2024-01-30T05:46:40;10.20;99.90
7958;DHT22;4024;52.172;5.378;2024-01-30T05:49:06;10.20;99.90
7958;DHT22;4024;52.172;5.378;2024-01-30T05:51:31;10.20;99.90
7958;DHT22;4024;52.172;5.378;2024-01-30T05:53:57;10.30;99.90
7958;DHT22;4024;52.172;5.378;2024-01-30T05:56:23;10.30;99.90
7958;DHT22;4024;52.172;5.378;2024-01-30T05:58:48;10.40;99.90
7958;DHT22;4024;52.172;5.378;2024-01-30T06:01:15;10.40;99.90
7958;DHT22;4024;52.172;5.378;2024-01-30T06:03:41;10.40;99.90
7958;DHT22;4024;52.172;5.378;2024-01-30T06:06:08;10.40;99.90
7958;DHT22;4024;52.172;5.378;2024-01-30T06:08:34;10.40;99.90
7958;DHT22;4024;52.172;5.378;2024-01-30T06:11:00;10.40;99.90
7958;DHT22;4024;52.172;5.378;2024-01-30T06:13:26;10.50;99.90
7958;DHT22;4024;52.172;5.378;2024-01-30T06:15:52;10.50;99.90
7958;DHT22;4024;52.172;5.378;2024-01-30T06:18:17;10.50;99.90
7958;DHT22;4024;52.172;5.378;2024-01-30T06:20:43;10.60;99.90
7958;DHT22;4024;52.172;5.378;2024-01-30T06:23:09;10.60;99.90
7958;DHT22;4024;52.172;5.378;2024-01-30T06:25:34;10.60;99.90
7958;DHT22;4024;52.172;5.378;2024-01-30T06:28:00;10.60;99.90
7958;DHT22;4024;52.172;5.378;2024-01-30T06:30:25;10.70;99.90
7958;DHT22;4024;52.172;5.378;2024-01-30T06:32:51;10.70;99.90
7958;DHT22;4024;52.172;5.378;2024-01-30T06:35:17;10.80;99.90
7958;DHT22;4024;52.172;5.378;2024-01-30T06:37:43;10.70;99.90
7958;DHT22;4024;52.172;5.378;2024-01-30T06:40:09;10.70;99.90
7958;DHT22;4024;52.172;5.378;2024-01-30T06:42:34;10.80;99.90
7958;DHT22;4024;52.172;5.378;2024-01-30T06:45:00;10.70;99.90
7958;DHT22;4024;52.172;5.378;2024-01-30T06:47:25;10.80;99.90
7958;DHT22;4024;52.172;5.378;2024-01-30T06:49:51;10.80;99.90
7958;DHT22;4024;52.172;5.378;2024-01-30T06:52:17;10.80;99.90
7958;DHT22;4024;52.172;5.378;2024-01-30T06:54:42;10.80;99.90
7958;DHT22;4024;52.172;5.378;2024-01-30T06:57:08;10.80;99.90
7958;DHT22;4024;52.172;5.378;2024-01-30T06:59:37;10.80;99.90
7958;DHT22;4024;52.172;5.378;2024-01-30T07:02:02;10.90;99.90
7958;DHT22;4024;52.172;5.378;2024-01-30T07:04:28;10.90;99.90
7958;DHT22;4024;52.172;5.378;2024-01-30T07:06:54;10.90;99.90
7958;DHT22;4024;52.172;5.378;2024-01-30T07:09:19;10.90;99.90
7958;DHT22;4024;52.172;5.378;2024-01-30T07:11:45;10.90;99.90
7958;DHT22;4024;52.172;5.378;2024-01-30T07:14:10;10.90;99.90
7958;DHT22;4024;52.172;5.378;2024-01-30T07:16:36;10.90;99.90
7958;DHT22;4024;52.172;5.378;2024-01-30T07:19:02;10.90;99.90
7958;DHT22;4024;52.172;5.378;2024-01-30T07:21:27;10.90;99.90
7958;DHT22;4024;52.172;5.378;2024-01-30T07:23:56;10.90;99.90
7958;DHT22;4024;52.172;5.378;2024-01-30T07:26:22;10.90;99.90
7958;DHT22;4024;52.172;5.378;2024-01-30T07:28:47;10.90;99.90
7958;DHT22;4024;52.172;5.378;2024-01-30T07:31:13;11.00;99.90
7958;DHT22;4024;52.172;5.378;2024-01-30T07:33:39;11.00;99.90
7958;DHT22;4024;52.172;5.378;2024-01-30T07:36:05;11.00;99.90
7958;DHT22;4024;52.172;5.378;2024-01-30T07:38:33;11.00;99.90
7958;DHT22;4024;52.172;5.378;2024-01-30T07:40:59;11.00;99.90
7958;DHT22;4024;52.172;5.378;2024-01-30T07:43:24;11.00;99.90
7958;DHT22;4024;52.172;5.378;2024-01-30T07:45:50;11.00;99.90
7958;DHT22;4024;52.172;5.378;2024-01-30T07:48:15;11.00;99.90
7958;DHT22;4024;52.172;5.378;2024-01-30T07:50:41;11.00;99.90
7958;DHT22;4024;52.172;5.378;2024-01-30T07:53:07;11.00;99.90
7958;DHT22;4024;52.172;5.378;2024-01-30T07:55:32;11.00;99.90
7958;DHT22;4024;52.172;5.378;2024-01-30T07:57:58;11.00;99.90
7958;DHT22;4024;52.172;5.378;2024-01-30T08:00:27;11.10;99.90
7958;DHT22;4024;52.172;5.378;2024-01-30T08:02:54;11.10;99.90
7958;DHT22;4024;52.172;5.378;2024-01-30T08:05:21;11.10;99.90
7958;DHT22;4024;52.172;5.378;2024-01-30T08:07:48;11.10;99.90
7958;DHT22;4024;52.172;5.378;2024-01-30T08:10:14;11.20;99.90
7958;DHT22;4024;52.172;5.378;2024-01-30T08:12:40;11.20;99.90
7958;DHT22;4024;52.172;5.378;2024-01-30T08:15:06;11.20;99.90
7958;DHT22;4024;52.172;5.378;2024-01-30T08:17:31;11.30;99.90
7958;DHT22;4024;52.172;5.378;2024-01-30T08:19:57;11.30;99.90
7958;DHT22;4024;52.172;5.378;2024-01-30T08:22:22;11.30;99.90
7958;DHT22;4024;52.172;5.378;2024-01-30T08:24:48;11.40;99.90
7958;DHT22;4024;52.172;5.378;2024-01-30T08:27:14;11.40;99.90
7958;DHT22;4024;52.172;5.378;2024-01-30T08:29:40;11.40;99.90
7958;DHT22;4024;52.172;5.378;2024-01-30T08:32:06;11.40;99.90
7958;DHT22;4024;52.172;5.378;2024-01-30T08:34:32;11.50;99.90
7958;DHT22;4024;52.172;5.378;2024-01-30T08:36:57;11.50;99.90
7958;DHT22;4024;52.172;5.378;2024-01-30T08:39:23;11.50;99.90
7958;DHT22;4024;52.172;5.378;2024-01-30T08:41:49;11.60;99.90
7958;DHT22;4024;52.172;5.378;2024-01-30T08:44:14;11.60;99.90
7958;DHT22;4024;52.172;5.378;2024-01-30T08:46:40;11.70;99.90
7958;DHT22;4024;52.172;5.378;2024-01-30T08:49:05;11.70;99.90
7958;DHT22;4024;52.172;5.378;2024-01-30T08:51:31;11.80;99.90
7958;DHT22;4024;52.172;5.378;2024-01-30T08:53:57;11.80;99.90
7958;DHT22;4024;52.172;5.378;2024-01-30T08:56:22;11.90;99.90
7958;DHT22;4024;52.172;5.378;2024-01-30T08:58:48;11.90;99.90
7958;DHT22;4024;52.172;5.378;2024-01-30T09:01:14;11.90;99.90
7958;DHT22;4024;52.172;5.378;2024-01-30T09:03:40;12.00;99.90
7958;DHT22;4024;52.172;5.378;2024-01-30T09:06:09;12.00;99.90
7958;DHT22;4024;52.172;5.378;2024-01-30T09:08:34;12.10;99.90
7958;DHT22;4024;52.172;5.378;2024-01-30T09:11:00;12.10;99.90
7958;DHT22;4024;52.172;5.378;2024-01-30T09:13:26;12.10;99.90
7958;DHT22;4024;52.172;5.378;2024-01-30T09:15:51;12.20;99.90
7958;DHT22;4024;52.172;5.378;2024-01-30T09:18:18;12.20;99.90
7958;DHT22;4024;52.172;5.378;2024-01-30T09:20:43;12.30;99.90
7958;DHT22;4024;52.172;5.378;2024-01-30T09:23:12;12.30;99.90
7958;DHT22;4024;52.172;5.378;2024-01-30T09:25:37;12.40;99.90
7958;DHT22;4024;52.172;5.378;2024-01-30T09:28:03;12.50;99.90
7958;DHT22;4024;52.172;5.378;2024-01-30T09:30:28;12.50;99.90
7958;DHT22;4024;52.172;5.378;2024-01-30T09:32:54;12.50;99.90
7958;DHT22;4024;52.172;5.378;2024-01-30T09:35:20;12.50;99.90
7958;DHT22;4024;52.172;5.378;2024-01-30T09:37:45;12.50;99.90
7958;DHT22;4024;52.172;5.378;2024-01-30T09:40:11;12.60;99.90
7958;DHT22;4024;52.172;5.378;2024-01-30T09:42:37;12.60;99.90
7958;DHT22;4024;52.172;5.378;2024-01-30T09:45:05;12.60;99.90
7958;DHT22;4024;52.172;5.378;2024-01-30T09:47:41;12.60;99.90
7958;DHT22;4024;52.172;5.378;2024-01-30T09:50:09;12.70;99.90
7958;DHT22;4024;52.172;5.378;2024-01-30T09:52:35;12.70;99.90
7958;DHT22;4024;52.172;5.378;2024-01-30T09:55:01;12.70;99.90
7958;DHT22;4024;52.172;5.378;2024-01-30T09:57:27;12.70;99.90
7958;DHT22;4024;52.172;5.378;2024-01-30T09:59:53;12.70;99.90
7958;DHT22;4024;52.172;5.378;2024-01-30T10:02:19;12.80;99.90
7958;DHT22;4024;52.172;5.378;2024-01-30T10:04:48;12.70;99.90
7958;DHT22;4024;52.172;5.378;2024-01-30T10:07:14;12.70;99.90
7958;DHT22;4024;52.172;5.378;2024-01-30T10:09:40;12.80;99.90
7958;DHT22;4024;52.172;5.378;2024-01-30T10:12:06;12.80;99.90
7958;DHT22;4024;52.172;5.378;2024-01-30T10:14:31;12.80;99.90
7958;DHT22;4024;52.172;5.378;2024-01-30T10:16:58;12.90;99.90
7958;DHT22;4024;52.172;5.378;2024-01-30T10:19:23;12.80;99.90
7958;DHT22;4024;52.172;5.378;2024-01-30T10:21:49;12.80;99.90
7958;DHT22;4024;52.172;5.378;2024-01-30T10:24:15;12.90;99.90
7958;DHT22;4024;52.172;5.378;2024-01-30T10:26:43;12.90;99.90
7958;DHT22;4024;52.172;5.378;2024-01-30T10:29:08;12.90;99.90
7958;DHT22;4024;52.172;5.378;2024-01-30T10:31:34;13.00;99.90
7958;DHT22;4024;52.172;5.378;2024-01-30T10:34:00;13.00;99.90
7958;DHT22;4024;52.172;5.378;2024-01-30T10:36:28;13.00;99.90
7958;DHT22;4024;52.172;5.378;2024-01-30T10:38:59;13.10;99.90
7958;DHT22;4024;52.172;5.378;2024-01-30T10:41:27;13.20;99.90
7958;DHT22;4024;52.172;5.378;2024-01-30T10:44:03;13.20;99.90
7958;DHT22;4024;52.172;5.378;2024-01-30T10:46:32;13.20;99.90
7958;DHT22;4024;52.172;5.378;2024-01-30T10:48:59;13.20;99.90
7958;DHT22;4024;52.172;5.378;2024-01-30T10:51:28;13.20;99.90
7958;DHT22;4024;52.172;5.378;2024-01-30T10:53:55;13.20;99.90
7958;DHT22;4024;52.172;5.378;2024-01-30T10:56:21;13.20;99.90
7958;DHT22;4024;52.172;5.378;2024-01-30T10:58:51;13.20;99.90
7958;DHT22;4024;52.172;5.378;2024-01-30T11:01:22;13.40;99.90
7958;DHT22;4024;52.172;5.378;2024-01-30T11:03:51;13.20;99.90
7958;DHT22;4024;52.172;5.378;2024-01-30T11:06:17;13.30;99.90
7958;DHT22;4024;52.172;5.378;2024-01-30T11:08:46;13.30;99.90
7958;DHT22;4024;52.172;5.378;2024-01-30T11:11:25;13.30;99.90
7958;DHT22;4024;52.172;5.378;2024-01-30T11:13:50;13.40;99.90
7958;DHT22;4024;52.172;5.378;2024-01-30T11:16:17;13.40;99.90
7958;DHT22;4024;52.172;5.378;2024-01-30T11:18:42;13.50;99.90
7958;DHT22;4024;52.172;5.378;2024-01-30T11:21:08;13.50;99.90
7958;DHT22;4024;52.172;5.378;2024-01-30T11:23:34;13.50;99.90
7958;DHT22;4024;52.172;5.378;2024-01-30T11:26:00;13.50;99.90
7958;DHT22;4024;52.172;5.378;2024-01-30T11:28:32;13.60;99.90
7958;DHT22;4024;52.172;5.378;2024-01-30T11:31:05;13.60;99.90
7958;DHT22;4024;52.172;5.378;2024-01-30T11:33:32;13.60;99.90
7958;DHT22;4024;52.172;5.378;2024-01-30T11:36:00;13.50;99.90
7958;DHT22;4024;52.172;5.378;2024-01-30T11:38:26;13.60;99.90
7958;DHT22;4024;52.172;5.378;2024-01-30T11:40:55;13.70;99.90
7958;DHT22;4024;52.172;5.378;2024-01-30T11:43:24;13.70;99.90
7958;DHT22;4024;52.172;5.378;2024-01-30T11:45:50;13.80;99.90
7958;DHT22;4024;52.172;5.378;2024-01-30T11:48:16;13.60;99.90
7958;DHT22;4024;52.172;5.378;2024-01-30T11:50:41;13.60;99.90
7958;DHT22;4024;52.172;5.378;2024-01-30T11:53:07;13.60;99.90
7958;DHT22;4024;52.172;5.378;2024-01-30T11:55:33;13.60;99.90
7958;DHT22;4024;52.172;5.378;2024-01-30T11:58:03;13.60;99.90
7958;DHT22;4024;52.172;5.378;2024-01-30T12:00:30;13.50;99.90
7958;DHT22;4024;52.172;5.378;2024-01-30T12:02:58;13.50;99.90
7958;DHT22;4024;52.172;5.378;2024-01-30T12:05:26;13.40;99.90
7958;DHT22;4024;52.172;5.378;2024-01-30T12:07:52;13.40;99.90
7958;DHT22;4024;52.172;5.378;2024-01-30T12:10:19;13.50;99.90
7958;DHT22;4024;52.172;5.378;2024-01-30T12:12:49;13.40;99.90
7958;DHT22;4024;52.172;5.378;2024-01-30T12:15:16;13.30;99.90
7958;DHT22;4024;52.172;5.378;2024-01-30T12:17:42;13.30;99.90
7958;DHT22;4024;52.172;5.378;2024-01-30T12:20:15;13.30;99.90
7958;DHT22;4024;52.172;5.378;2024-01-30T12:22:47;13.30;99.90
7958;DHT22;4024;52.172;5.378;2024-01-30T12:25:17;13.30;99.90
7958;DHT22;4024;52.172;5.378;2024-01-30T12:27:45;13.20;99.90
7958;DHT22;4024;52.172;5.378;2024-01-30T12:30:12;13.10;99.90
7958;DHT22;4024;52.172;5.378;2024-01-30T12:32:41;13.00;99.90
7958;DHT22;4024;52.172;5.378;2024-01-30T12:35:14;12.90;99.90
7958;DHT22;4024;52.172;5.378;2024-01-30T12:37:41;12.80;99.90
7958;DHT22;4024;52.172;5.378;2024-01-30T12:40:07;12.80;99.90
7958;DHT22;4024;52.172;5.378;2024-01-30T12:42:34;12.70;99.90
7958;DHT22;4024;52.172;5.378;2024-01-30T12:45:02;12.60;99.90
7958;DHT22;4024;52.172;5.378;2024-01-30T12:47:28;12.60;99.90
7958;DHT22;4024;52.172;5.378;2024-01-30T12:49:53;12.60;99.90
7958;DHT22;4024;52.172;5.378;2024-01-30T12:52:20;12.60;99.90
7958;DHT22;4024;52.172;5.378;2024-01-30T12:54:49;12.50;99.90
7958;DHT22;4024;52.172;5.378;2024-01-30T12:57:16;12.60;99.90
7958;DHT22;4024;52.172;5.378;2024-01-30T12:59:43;12.60;99.90
7958;DHT22;4024;52.172;5.378;2024-01-30T13:02:09;12.50;99.90
7958;DHT22;4024;52.172;5.378;2024-01-30T13:04:35;12.50;99.90
7958;DHT22;4024;52.172;5.378;2024-01-30T13:07:01;12.60;99.90
7958;DHT22;4024;52.172;5.378;2024-01-30T13:09:27;12.50;99.90
7958;DHT22;4024;52.172;5.378;2024-01-30T13:11:52;12.50;99.90
7958;DHT22;4024;52.172;5.378;2024-01-30T13:14:18;12.50;99.90
7958;DHT22;4024;52.172;5.378;2024-01-30T13:16:44;12.40;99.90
7958;DHT22;4024;52.172;5.378;2024-01-30T13:19:10;12.50;99.90
7958;DHT22;4024;52.172;5.378;2024-01-30T13:21:36;12.50;99.90
7958;DHT22;4024;52.172;5.378;2024-01-30T13:24:01;12.50;99.90
7958;DHT22;4024;52.172;5.378;2024-01-30T13:26:27;12.40;99.90
7958;DHT22;4024;52.172;5.378;2024-01-30T13:28:53;12.50;99.90
7958;DHT22;4024;52.172;5.378;2024-01-30T13:31:19;12.40;99.90
7958;DHT22;4024;52.172;5.378;2024-01-30T13:33:44;12.50;99.90
7958;DHT22;4024;52.172;5.378;2024-01-30T13:36:11;12.50;99.90
7958;DHT22;4024;52.172;5.378;2024-01-30T13:38:37;12.40;99.90
7958;DHT22;4024;52.172;5.378;2024-01-30T13:41:03;12.40;99.90
7958;DHT22;4024;52.172;5.378;2024-01-30T13:43:29;12.40;99.90
7958;DHT22;4024;52.172;5.378;2024-01-30T13:45:54;12.40;99.90
7958;DHT22;4024;52.172;5.378;2024-01-30T13:48:20;12.30;99.90
7958;DHT22;4024;52.172;5.378;2024-01-30T13:50:47;12.30;99.90
7958;DHT22;4024;52.172;5.378;2024-01-30T13:53:12;12.30;99.90
7958;DHT22;4024;52.172;5.378;2024-01-30T13:55:38;12.40;99.90
7958;DHT22;4024;52.172;5.378;2024-01-30T13:58:05;12.40;99.90
7958;DHT22;4024;52.172;5.378;2024-01-30T14:00:31;12.30;99.90
7958;DHT22;4024;52.172;5.378;2024-01-30T14:02:57;12.30;99.90
7958;DHT22;4024;52.172;5.378;2024-01-30T14:05:24;12.10;99.90
7958;DHT22;4024;52.172;5.378;2024-01-30T14:07:51;12.30;99.90
7958;DHT22;4024;52.172;5.378;2024-01-30T14:10:17;12.20;99.90
7958;DHT22;4024;52.172;5.378;2024-01-30T14:12:43;12.20;99.90
7958;DHT22;4024;52.172;5.378;2024-01-30T14:15:09;12.10;99.90
7958;DHT22;4024;52.172;5.378;2024-01-30T14:17:35;12.20;99.90
7958;DHT22;4024;52.172;5.378;2024-01-30T14:20:02;12.00;99.90
7958;DHT22;4024;52.172;5.378;2024-01-30T14:22:29;12.00;99.90
7958;DHT22;4024;52.172;5.378;2024-01-30T14:24:55;12.00;99.90
7958;DHT22;4024;52.172;5.378;2024-01-30T14:27:21;12.00;99.90
7958;DHT22;4024;52.172;5.378;2024-01-30T14:29:47;11.90;99.90
7958;DHT22;4024;52.172;5.378;2024-01-30T14:32:13;11.90;99.90
7958;DHT22;4024;52.172;5.378;2024-01-30T14:34:38;11.90;99.90
7958;DHT22;4024;52.172;5.378;2024-01-30T14:37:04;11.90;99.90
7958;DHT22;4024;52.172;5.378;2024-01-30T14:39:30;11.90;99.90
7958;DHT22;4024;52.172;5.378;2024-01-30T14:41:56;11.90;99.90
7958;DHT22;4024;52.172;5.378;2024-01-30T14:44:21;11.90;99.90
7958;DHT22;4024;52.172;5.378;2024-01-30T14:46:48;11.80;99.90
7958;DHT22;4024;52.172;5.378;2024-01-30T14:49:14;12.00;99.90
7958;DHT22;4024;52.172;5.378;2024-01-30T14:51:41;11.80;99.90
7958;DHT22;4024;52.172;5.378;2024-01-30T14:54:07;11.80;99.90
7958;DHT22;4024;52.172;5.378;2024-01-30T14:56:33;11.80;99.90
7958;DHT22;4024;52.172;5.378;2024-01-30T14:58:58;11.70;99.90
7958;DHT22;4024;52.172;5.378;2024-01-30T15:01:24;11.70;99.90
7958;DHT22;4024;52.172;5.378;2024-01-30T15:03:49;11.70;99.90
7958;DHT22;4024;52.172;5.378;2024-01-30T15:06:17;11.70;99.90
7958;DHT22;4024;52.172;5.378;2024-01-30T15:08:43;11.70;99.90
7958;DHT22;4024;52.172;5.378;2024-01-30T15:11:08;11.60;99.90
7958;DHT22;4024;52.172;5.378;2024-01-30T15:13:34;11.60;99.90
7958;DHT22;4024;52.172;5.378;2024-01-30T15:16:00;11.60;99.90
7958;DHT22;4024;52.172;5.378;2024-01-30T15:18:28;11.60;99.90
7958;DHT22;4024;52.172;5.378;2024-01-30T15:20:53;11.60;99.90
7958;DHT22;4024;52.172;5.378;2024-01-30T15:23:19;11.60;99.90
7958;DHT22;4024;52.172;5.378;2024-01-30T15:25:45;11.60;99.90
7958;DHT22;4024;52.172;5.378;2024-01-30T15:28:10;11.60;99.90
7958;DHT22;4024;52.172;5.378;2024-01-30T15:30:36;11.60;99.90
7958;DHT22;4024;52.172;5.378;2024-01-30T15:33:01;11.50;99.90
7958;DHT22;4024;52.172;5.378;2024-01-30T15:35:27;11.50;99.90
7958;DHT22;4024;52.172;5.378;2024-01-30T15:37:53;11.40;99.90
7958;DHT22;4024;52.172;5.378;2024-01-30T15:40:19;11.40;99.90
7958;DHT22;4024;52.172;5.378;2024-01-30T15:42:45;11.40;99.90
7958;DHT22;4024;52.172;5.378;2024-01-30T15:45:11;11.40;99.90
7958;DHT22;4024;52.172;5.378;2024-01-30T15:47:36;11.40;99.90
7958;DHT22;4024;52.172;5.378;2024-01-30T15:50:03;11.40;99.90
7958;DHT22;4024;52.172;5.378;2024-01-30T15:52:29;11.40;99.90
7958;DHT22;4024;52.172;5.378;2024-01-30T15:54:55;11.30;99.90
7958;DHT22;4024;52.172;5.378;2024-01-30T15:57:20;11.30;99.90
7958;DHT22;4024;52.172;5.378;2024-01-30T15:59:46;11.30;99.90